• Join FlightAware (Why Join?)
  • Login
  • US Flag 
Trick or treat! (Boo!!) 
12:27AM EDT


 

Airport Tracker/Info


-or-


 

Live Flight TrackerFlight Track Log ✈ SWA1707 ✈ 07-May-2013 ✈ KMSY - KDAL

Flight Track Log - Related Links

Times and Time Zones

All times are in EDT time to prevent confusion due to time zone crossing. See the SWA1707 flight status page for this flight to view local times or setup timezone preferences in your user account.

Time Position Orientation Groundspeed Altitude Reporting Facility
EDT Latitude Longitude Course Direction KTS MPH feet Rate Location/Type
08:16PM 29.9981 -90.2867 281° West 165 190 700  Level Houston Center
08:16PM 30.0031 -90.3153 281° West 170 196 1,700 1,740 Climbing Houston Center
08:17PM 30.0481 -90.3592 320° Northwest 236 272 3,400 2,280 Climbing Houston Center
08:19PM 30.1161 -90.4175 323° Northwest 239 275 7,000 2,880 Climbing Houston Center
08:20PM 30.1739 -90.4700 322° Northwest 256 295 10,100 2,340 Climbing Houston Center
08:21PM 30.2358 -90.5294 320° Northwest 282 325 11,800 1,800 Climbing Houston Center
08:22PM 30.3108 -90.6011 320° Northwest 342 394 13,900 2,220 Climbing Houston Center
08:23PM 30.3689 -90.6972 305° West 361 415 16,400 2,460 Climbing Houston Center
08:24PM 30.4267 -90.7917 305° West 360 414 19,000 2,400 Climbing Houston Center
08:25PM 30.4969 -90.9042 306° West 359 413 21,400 2,040 Climbing Houston Center
08:26PM 30.5583 -91.0014 306° West 371 427 23,200 1,620 Climbing Houston Center
08:27PM 30.6153 -91.1050 303° West 381 438 24,800 1,440 Climbing Houston Center
08:28PM 30.6675 -91.2172 298° West 393 452 26,200 1,320 Climbing Houston Center
08:29PM 30.7192 -91.3319 298° West 400 460 27,600 1,560 Climbing Houston Center
08:30PM 30.7814 -91.4631 299° West 402 463 29,500 1,620 Climbing Houston Center
08:31PM 30.8328 -91.5761 298° West 395 455 31,000 1,320 Climbing Houston Center
08:32PM 30.8839 -91.6878 298° West 391 450 32,300 1,200 Climbing Houston Center
08:33PM 30.9361 -91.7994 299° West 392 451 33,600 1,020 Climbing Houston Center
08:34PM 30.9861 -91.9083 298° West 383 441 34,500 660 Climbing Houston Center
08:35PM 31.0372 -92.0189 298° West 387 445 35,000 240 Climbing Houston Center
08:36PM 31.0925 -92.1417 298° West 387 445 35,000  Level Houston Center
08:37PM 31.1431 -92.2517 298° West 387 445 35,000  Level Houston Center
08:38PM 31.1931 -92.3625 298° West 387 445 35,000  Level Houston Center
08:39PM 31.2419 -92.4711 298° West 382 440 35,000 120 Level Houston Center
08:40PM 31.2981 -92.6081 296° West 388 447 35,300 420 Climbing Houston Center
08:41PM 31.3392 -92.7197 293° West 381 438 35,900 300 Climbing Houston Center
08:42PM 31.3825 -92.8350 294° West 385 443 36,000  Climbing Houston Center
08:43PM 31.4256 -92.9481 294° West 384 442 36,000  Level Houston Center
08:44PM 31.4678 -93.0614 294° West 382 440 36,000  Level Houston Center
08:45PM 31.5100 -93.1739 294° West 381 438 36,000  Level Houston Center
08:46PM 31.5539 -93.2919 294° West 387 445 36,000  Level Houston Center
08:47PM 31.6056 -93.4294 294° West 385 443 36,000  Level Houston Center
08:48PM 31.6483 -93.5456 293° West 389 448 36,000  Level Houston Center
08:49PM 31.6583 -93.5792 289° West 391 450 36,000  Level Fort Worth Center
08:50PM 31.7014 -93.6972 293° West 391 450 36,000  Level Fort Worth Center
08:51PM 31.7422 -93.8128 293° West 391 450 36,000  Level Fort Worth Center
08:52PM 31.7708 -93.9339 286° West 391 450 36,000  Level Fort Worth Center
08:53PM 31.7931 -94.0575 282° West 384 442 36,000  Level Fort Worth Center
08:54PM 31.8192 -94.1789 284° West 384 442 36,000  Level Fort Worth Center
08:55PM 31.8431 -94.2978 283° West 384 442 36,000  Level Fort Worth Center
08:56PM 31.8667 -94.4194 283° West 389 448 36,000  Level Fort Worth Center
08:57PM 31.8906 -94.5408 283° West 389 448 36,000  Level Fort Worth Center
08:58PM 31.9161 -94.6672 283° West 389 448 36,000  Level Fort Worth Center
08:59PM 31.9375 -94.7892 282° West 389 448 36,000  Level Fort Worth Center
09:00PM 31.9611 -94.9108 283° West 389 448 36,000  Level Fort Worth Center
09:01PM 32.0008 -95.0297 292° West 389 448 36,000 -780 Level Fort Worth Center
09:02PM 32.0489 -95.1436 296° West 389 448 34,500 -2,400 Descending Fort Worth Center
09:03PM 32.0989 -95.2578 297° West 389 448 31,300 -3,240 Descending Fort Worth Center
09:04PM 32.1508 -95.3744 298° West 401 461 28,100 -3,000 Descending Fort Worth Center
09:05PM 32.1989 -95.4936 296° West 401 461 25,400 -2,640 Descending Fort Worth Center
09:06PM 32.2483 -95.6031 298° West 396 456 22,900 -2,400 Descending Fort Worth Center
09:07PM 32.2958 -95.7103 298° West 390 449 20,600 -2,340 Descending Fort Worth Center
09:08PM 32.3411 -95.8150 297° West 370 426 18,300 -2,280 Descending Fort Worth Center
09:09PM 32.3842 -95.9178 296° West 357 411 16,100 -2,340 Descending Fort Worth Center
09:10PM 32.4292 -96.0228 297° West 333 383 13,700 -2,220 Descending Fort Worth Center
09:11PM 32.4675 -96.1058 299° West 325 374 11,700 -1,680 Descending Fort Worth Center
09:12PM 32.5103 -96.2086 296° West 315 362 10,400 -960 Descending Fort Worth Center
09:13PM 32.5403 -96.2822 296° West 295 339 9,800 -960 Descending Fort Worth Center
09:14PM 32.5847 -96.3706 301° West 278 320 8,500 -1,140 Descending Fort Worth Center
09:15PM 32.6231 -96.4367 305° West 278 320 7,600 -1,020 Descending Fort Worth Center
09:16PM 32.6717 -96.5200 305° West 278 320 6,500 -840 Descending Fort Worth Center
09:17PM 32.7242 -96.5739 319° Northwest 278 320 6,000 -1,140 Descending Fort Worth Center
09:18PM 32.7892 -96.6350 322° Northwest 278 320 4,300 -1,320 Descending Fort Worth Center
09:18PM 32.8167 -96.6667 316° Northwest 273 314 4,000 -540 Descending Dallas / Fort Worth TRACON
09:19PM 32.8833 -96.7167 328° Northwest 245 282 3,500 -540 Descending Dallas / Fort Worth TRACON
09:20PM 32.9333 -96.7667 320° Northwest 241 277 3,000 -300 Descending Dallas / Fort Worth TRACON
09:21PM 32.9667 -96.8333 301° West 223 257 2,900 -480 Descending Dallas / Fort Worth TRACON
09:22PM 32.9667 -96.9000 270° West 180 207 2,100 -540 Descending Dallas / Fort Worth TRACON
09:23PM 32.9167 -96.9000 180° South 170 196 1,900 -540 Descending Dallas / Fort Worth TRACON
09:24PM 32.8833 -96.8833 157° South 134 154 1,100 -840 Descending Dallas / Fort Worth TRACON